createdAt,value
2023-04-12T00:00:41.724Z,24.20
2023-04-12T00:01:43.628Z,24.20
2023-04-12T00:02:45.528Z,24.51
2023-04-12T00:03:51.030Z,24.13
2023-04-12T00:04:58.016Z,24.08
2023-04-12T00:06:07.368Z,23.97
2023-04-12T00:07:10.169Z,24.36
2023-04-12T00:08:11.944Z,24.17
2023-04-12T00:09:14.542Z,24.30
2023-04-12T00:10:16.586Z,24.49
2023-04-12T00:11:18.440Z,23.97
2023-04-12T00:12:20.763Z,24.38
2023-04-12T00:13:22.563Z,24.06
2023-04-12T00:14:25.403Z,24.38
2023-04-12T00:15:27.780Z,24.70
2023-04-12T00:16:29.661Z,24.00
2023-04-12T00:17:31.533Z,24.01
2023-04-12T00:18:33.396Z,24.29
2023-04-12T00:19:35.406Z,24.18
2023-04-12T00:20:37.481Z,24.46
2023-04-12T00:21:39.332Z,24.05
2023-04-12T00:22:44.788Z,24.06
2023-04-12T00:23:47.578Z,24.27
2023-04-12T00:24:49.371Z,24.45
2023-04-12T00:25:51.282Z,24.22
2023-04-12T00:26:53.286Z,24.03
2023-04-12T00:27:55.051Z,24.08
2023-04-12T00:28:57.881Z,24.34
2023-04-12T00:29:59.708Z,24.15
2023-04-12T00:31:02.874Z,24.50
2023-04-12T00:32:06.003Z,24.00
2023-04-12T00:33:08.040Z,24.08
2023-04-12T00:34:09.812Z,24.53
2023-04-12T00:35:11.712Z,24.20
2023-04-12T00:36:14.414Z,24.35
2023-04-12T00:37:17.270Z,24.50
2023-04-12T00:38:19.174Z,24.56
2023-04-12T00:39:21.033Z,24.23
2023-04-12T00:40:22.930Z,24.35
2023-04-12T00:41:26.490Z,24.07
2023-04-12T00:42:28.591Z,24.34
2023-04-12T00:43:30.367Z,24.48
2023-04-12T00:44:33.998Z,24.14
2023-04-12T00:45:37.583Z,24.44
2023-04-12T00:46:39.790Z,24.35
2023-04-12T00:47:45.449Z,24.47
2023-04-12T00:48:48.428Z,24.63
2023-04-12T00:49:51.540Z,24.56
2023-04-12T00:50:55.660Z,24.13
2023-04-12T00:52:18.140Z,24.65
2023-04-12T00:53:19.961Z,24.41
2023-04-12T00:54:22.269Z,24.67
2023-04-12T00:55:24.588Z,24.35
2023-04-12T00:56:28.522Z,24.32
2023-04-12T00:57:40.479Z,24.20
2023-04-12T00:58:42.547Z,24.12
2023-04-12T00:59:44.509Z,24.61
2023-04-12T01:00:50.332Z,24.45
2023-04-12T01:01:52.950Z,24.56
2023-04-12T01:02:55.109Z,24.53
2023-04-12T01:04:01.506Z,24.73
2023-04-12T01:05:06.491Z,24.44
2023-04-12T01:06:27.137Z,24.60
2023-04-12T01:07:38.943Z,24.24
2023-04-12T01:09:11.369Z,24.57
2023-04-12T01:10:25.358Z,24.37
2023-04-12T01:12:06.887Z,24.13
2023-04-12T01:13:49.148Z,24.39
2023-04-12T01:15:07.257Z,24.03
2023-04-12T01:16:12.731Z,24.35
2023-04-12T01:17:20.950Z,24.83
2023-04-12T01:18:25.720Z,24.81
2023-04-12T01:20:01.701Z,24.82
2023-04-12T01:21:08.932Z,24.36
2023-04-12T01:22:23.891Z,24.80
2023-04-12T01:23:43.678Z,24.42
2023-04-12T01:25:10.359Z,24.81
2023-04-12T01:26:37.213Z,24.69
2023-04-12T01:28:14.473Z,24.66
2023-04-12T01:29:19.285Z,24.74
2023-04-12T01:30:24.297Z,24.50
2023-04-12T01:31:28.697Z,24.80
2023-04-12T01:32:31.729Z,24.71
2023-04-12T01:33:36.846Z,24.67
2023-04-12T01:34:41.652Z,24.66
2023-04-12T01:35:44.590Z,25.07
2023-04-12T01:36:48.608Z,24.66
2023-04-12T01:37:50.721Z,24.74
2023-04-12T01:38:52.668Z,24.71
2023-04-12T01:39:54.530Z,25.08
2023-04-12T01:40:56.596Z,24.93
2023-04-12T01:41:59.765Z,25.11
2023-04-12T01:43:09.325Z,24.81
2023-04-12T01:44:16.428Z,24.90
2023-04-12T01:45:18.382Z,25.12
2023-04-12T01:46:23.296Z,24.81
2023-04-12T01:47:27.201Z,24.90
2023-04-12T01:48:29.090Z,24.70
2023-04-12T01:49:39.642Z,24.69
2023-04-12T01:50:59.917Z,25.34
2023-04-12T01:52:12.148Z,24.45
2023-04-12T01:53:25.609Z,24.58
2023-04-12T01:54:34.400Z,25.00
2023-04-12T01:55:39.247Z,25.05
2023-04-12T01:56:46.632Z,24.99
2023-04-12T01:57:49.453Z,24.99
2023-04-12T01:58:53.566Z,25.25
2023-04-12T01:59:58.679Z,24.81
2023-04-12T02:01:03.135Z,25.25
2023-04-12T02:02:06.045Z,24.91
2023-04-12T02:03:08.724Z,24.67
2023-04-12T02:04:11.754Z,24.61
2023-04-12T02:05:14.068Z,24.83
2023-04-12T02:06:19.644Z,24.65
2023-04-12T02:07:21.945Z,24.88
2023-04-12T02:08:24.174Z,24.73
2023-04-12T02:09:27.439Z,24.86
2023-04-12T02:10:30.940Z,25.08
2023-04-12T02:11:32.780Z,25.13
2023-04-12T02:12:34.552Z,24.65
2023-04-12T02:13:37.592Z,25.01
2023-04-12T02:14:40.109Z,24.92
2023-04-12T02:15:41.913Z,24.99
2023-04-12T02:16:44.844Z,24.83
2023-04-12T02:17:46.933Z,24.97
2023-04-12T02:18:51.977Z,24.98
2023-04-12T02:19:54.358Z,24.99
2023-04-12T02:20:56.824Z,24.81
2023-04-12T02:21:58.606Z,25.22
2023-04-12T02:23:01.075Z,25.11
2023-04-12T02:24:02.933Z,24.72
2023-04-12T02:25:08.384Z,25.02
2023-04-12T02:26:11.348Z,24.61
2023-04-12T02:27:13.165Z,24.83
2023-04-12T02:28:15.141Z,25.04
2023-04-12T02:29:17.638Z,24.88
2023-04-12T02:30:22.875Z,25.13
2023-04-12T02:31:28.106Z,24.78
2023-04-12T02:32:32.963Z,24.55
2023-04-12T02:33:36.924Z,24.97
2023-04-12T02:34:44.228Z,24.67
2023-04-12T02:35:52.475Z,25.11
2023-04-12T02:36:55.874Z,24.69
2023-04-12T02:37:57.953Z,24.87
2023-04-12T02:39:04.239Z,25.40
2023-04-12T02:40:11.305Z,24.79
2023-04-12T02:41:18.794Z,24.85
2023-04-12T02:42:20.926Z,25.05
2023-04-12T02:43:24.093Z,24.80
2023-04-12T02:44:33.920Z,24.90
2023-04-12T02:45:54.584Z,24.59
2023-04-12T02:46:56.520Z,24.93
2023-04-12T02:47:58.584Z,25.24
2023-04-12T02:49:03.905Z,24.94
2023-04-12T02:50:10.983Z,25.21
2023-04-12T02:51:23.411Z,24.55
2023-04-12T02:52:26.156Z,24.93
2023-04-12T02:53:41.984Z,24.94
2023-04-12T02:54:51.400Z,24.78
2023-04-12T02:55:53.328Z,25.04
2023-04-12T02:56:58.822Z,25.00
2023-04-12T02:58:21.243Z,24.92
2023-04-12T02:59:25.896Z,24.70
2023-04-12T03:00:53.974Z,25.21
2023-04-12T03:02:01.611Z,24.95
2023-04-12T03:03:08.959Z,25.09
2023-04-12T03:04:11.274Z,24.76
2023-04-12T03:05:21.450Z,24.75
2023-04-12T03:06:23.312Z,24.78
2023-04-12T03:07:25.295Z,25.10
2023-04-12T03:08:28.738Z,25.08
2023-04-12T03:09:33.100Z,25.10
2023-04-12T03:10:35.628Z,24.84
2023-04-12T03:11:38.433Z,24.69
2023-04-12T03:12:41.326Z,24.86
2023-04-12T03:13:52.475Z,24.83
2023-04-12T03:14:54.879Z,24.96
2023-04-12T03:16:00.258Z,25.02
2023-04-12T03:17:11.017Z,24.85
2023-04-12T03:18:12.883Z,24.69
2023-04-12T03:19:23.565Z,24.76
2023-04-12T03:20:29.569Z,24.60
2023-04-12T03:21:41.352Z,24.88
2023-04-12T03:22:43.220Z,25.11
2023-04-12T03:23:45.541Z,25.08
2023-04-12T03:24:51.771Z,24.91
2023-04-12T03:25:56.209Z,24.79
2023-04-12T03:27:10.494Z,24.79
2023-04-12T03:28:12.753Z,24.81
2023-04-12T03:29:26.143Z,24.96
2023-04-12T03:30:29.636Z,25.19
2023-04-12T03:31:32.887Z,24.83
2023-04-12T03:32:41.924Z,25.01
2023-04-12T03:33:45.606Z,25.17
2023-04-12T03:35:08.796Z,24.99
2023-04-12T03:36:11.258Z,24.92
2023-04-12T03:37:13.601Z,24.80
2023-04-12T03:38:17.227Z,25.01
2023-04-12T03:39:19.298Z,24.82
2023-04-12T03:40:25.827Z,24.91
2023-04-12T03:41:34.001Z,24.77
2023-04-12T03:42:38.972Z,25.19
2023-04-12T03:43:46.830Z,25.10
2023-04-12T03:44:54.052Z,24.74
2023-04-12T03:45:57.352Z,25.22
2023-04-12T03:47:00.768Z,24.89
2023-04-12T03:48:08.793Z,24.79
2023-04-12T03:49:16.910Z,25.34
2023-04-12T03:50:22.678Z,24.78
2023-04-12T03:51:30.840Z,24.82
2023-04-12T03:52:38.411Z,25.10
2023-04-12T03:53:42.031Z,25.11
2023-04-12T03:54:48.651Z,25.24
2023-04-12T03:55:58.799Z,24.84
2023-04-12T03:57:05.548Z,25.08
2023-04-12T03:58:16.380Z,25.15
2023-04-12T03:59:20.321Z,24.58
2023-04-12T04:00:24.397Z,25.26
2023-04-12T04:01:36.408Z,25.00
2023-04-12T04:02:38.660Z,25.07
2023-04-12T04:03:46.060Z,24.77
2023-04-12T04:04:58.419Z,25.13
2023-04-12T04:06:02.609Z,24.90
2023-04-12T04:07:07.941Z,25.24
2023-04-12T04:08:18.846Z,25.05
2023-04-12T04:09:26.217Z,25.18
2023-04-12T04:10:28.740Z,25.32
2023-04-12T04:11:32.087Z,24.98
2023-04-12T04:12:40.528Z,24.92
2023-04-12T04:13:46.786Z,24.60
2023-04-12T04:14:53.870Z,24.90
2023-04-12T04:16:21.923Z,24.79
2023-04-12T04:17:25.713Z,25.14
2023-04-12T04:18:28.794Z,24.64
2023-04-12T04:19:30.913Z,24.96
2023-04-12T04:20:32.969Z,24.84
2023-04-12T04:21:35.119Z,25.32
2023-04-12T04:22:37.030Z,24.80
2023-04-12T04:23:39.463Z,25.18
2023-04-12T04:24:42.770Z,24.96
2023-04-12T04:25:45.186Z,24.89
2023-04-12T04:26:50.389Z,25.48
2023-04-12T04:27:59.741Z,25.27
2023-04-12T04:29:05.272Z,25.28
2023-04-12T04:30:15.366Z,24.98
2023-04-12T04:31:22.410Z,25.24
2023-04-12T04:32:25.759Z,24.89
2023-04-12T04:33:32.812Z,25.07
2023-04-12T04:34:37.250Z,24.76
2023-04-12T04:35:44.993Z,25.43
2023-04-12T04:37:03.057Z,25.00
2023-04-12T04:38:04.843Z,25.11
2023-04-12T04:39:06.650Z,25.39
2023-04-12T04:40:15.339Z,25.32
2023-04-12T04:41:17.652Z,25.23
2023-04-12T04:42:26.506Z,25.37
2023-04-12T04:43:40.210Z,24.85
2023-04-12T04:44:42.700Z,25.22
2023-04-12T04:45:49.367Z,25.30
2023-04-12T04:46:52.545Z,25.03
2023-04-12T04:47:55.084Z,25.54
2023-04-12T04:48:57.001Z,25.32
2023-04-12T04:50:00.196Z,25.36
2023-04-12T04:51:02.812Z,25.04
2023-04-12T04:52:04.872Z,25.00
2023-04-12T04:53:06.670Z,25.21
2023-04-12T04:54:08.790Z,25.27
2023-04-12T04:55:15.049Z,25.32
2023-04-12T04:56:20.089Z,25.06
2023-04-12T04:57:26.816Z,25.43
2023-04-12T04:58:31.292Z,25.53
2023-04-12T04:59:34.549Z,25.29
2023-04-12T05:00:49.030Z,25.42
2023-04-12T05:01:52.456Z,25.39
2023-04-12T05:02:55.750Z,25.24
2023-04-12T05:04:01.210Z,25.21
2023-04-12T05:05:04.378Z,25.70
2023-04-12T05:06:08.819Z,25.29
2023-04-12T05:07:14.348Z,25.33
2023-04-12T05:08:19.442Z,25.58
2023-04-12T05:09:23.271Z,25.69
2023-04-12T05:10:30.779Z,25.69
2023-04-12T05:11:37.383Z,25.50
2023-04-12T05:12:44.104Z,25.54
2023-04-12T05:13:48.109Z,25.16
2023-04-12T05:14:51.750Z,25.40
2023-04-12T05:15:54.431Z,25.16
2023-04-12T05:16:57.284Z,25.69
2023-04-12T05:17:59.279Z,25.27
2023-04-12T05:19:01.231Z,25.32
2023-04-12T05:20:06.454Z,25.62
2023-04-12T05:21:08.382Z,25.53
2023-04-12T05:22:10.637Z,25.59
2023-04-12T05:23:12.464Z,25.18
2023-04-12T05:24:14.291Z,25.41
2023-04-12T05:25:20.918Z,24.97
2023-04-12T05:26:30.492Z,25.30
2023-04-12T05:27:33.718Z,24.88
2023-04-12T05:28:37.220Z,25.28
2023-04-12T05:29:39.084Z,24.95
2023-04-12T05:30:44.615Z,24.69
2023-04-12T05:31:49.420Z,24.99
2023-04-12T05:32:54.945Z,24.73
2023-04-12T05:33:56.945Z,25.15
2023-04-12T05:35:05.604Z,25.16
2023-04-12T05:36:08.135Z,25.02
2023-04-12T05:37:11.119Z,25.04
2023-04-12T05:38:14.312Z,24.68
2023-04-12T05:39:18.232Z,24.88
2023-04-12T05:40:21.613Z,24.70
2023-04-12T05:41:27.362Z,24.64
2023-04-12T05:42:29.166Z,24.67
2023-04-12T05:43:34.011Z,24.36
2023-04-12T05:44:38.770Z,24.45
2023-04-12T05:45:44.381Z,24.25
2023-04-12T05:46:46.328Z,24.38
2023-04-12T05:47:48.568Z,24.68
2023-04-12T05:48:50.632Z,24.00
2023-04-12T05:49:54.085Z,24.43
2023-04-12T05:50:55.907Z,24.42
2023-04-12T05:51:58.911Z,24.31
2023-04-12T05:53:01.894Z,24.42
2023-04-12T05:54:07.317Z,23.92
2023-04-12T05:55:10.528Z,24.02
2023-04-12T05:56:16.292Z,23.90
2023-04-12T05:57:19.358Z,23.99
2023-04-12T05:58:23.556Z,24.34
2023-04-12T05:59:30.937Z,24.02
2023-04-12T06:00:33.383Z,23.92
2023-04-12T06:01:35.302Z,24.52
2023-04-12T06:02:37.903Z,24.40
2023-04-12T06:03:41.895Z,23.93
2023-04-12T06:04:50.626Z,24.54
2023-04-12T06:05:54.140Z,23.94
2023-04-12T06:06:56.315Z,23.64
2023-04-12T06:08:00.007Z,24.43
2023-04-12T06:09:02.790Z,24.16
2023-04-12T06:10:05.340Z,24.40
2023-04-12T06:11:08.480Z,23.77
2023-04-12T06:12:11.039Z,24.36
2023-04-12T06:13:12.824Z,24.02
2023-04-12T06:14:17.342Z,24.37
2023-04-12T06:15:21.097Z,24.72
2023-04-12T06:16:28.457Z,24.38
2023-04-12T06:17:30.430Z,23.97
2023-04-12T06:18:32.472Z,23.92
2023-04-12T06:19:34.289Z,24.32
2023-04-12T06:20:39.645Z,24.60
2023-04-12T06:21:41.739Z,24.58
2023-04-12T06:22:44.365Z,24.05
2023-04-12T06:23:48.840Z,24.12
2023-04-12T06:24:52.262Z,24.11
2023-04-12T06:25:54.752Z,24.06
2023-04-12T06:26:56.571Z,24.17
2023-04-12T06:27:58.554Z,24.71
2023-04-12T06:29:01.407Z,23.97
2023-04-12T06:30:03.627Z,24.40
2023-04-12T06:31:09.747Z,24.21
2023-04-12T06:32:13.951Z,24.41
2023-04-12T06:33:16.016Z,24.93
2023-04-12T06:34:17.996Z,24.37
2023-04-12T06:35:21.600Z,24.43
2023-04-12T06:36:23.970Z,24.79
2023-04-12T06:37:25.724Z,24.56
2023-04-12T06:38:27.640Z,24.90
2023-04-12T06:39:29.421Z,24.19
2023-04-12T06:40:31.512Z,24.87
2023-04-12T06:41:33.347Z,24.88
2023-04-12T06:42:36.667Z,24.33
2023-04-12T06:43:38.826Z,24.87
2023-04-12T06:44:40.862Z,24.46
2023-04-12T06:45:42.763Z,24.71
2023-04-12T06:46:44.782Z,24.75
2023-04-12T06:47:47.546Z,24.65
2023-04-12T06:48:49.352Z,24.91
2023-04-12T06:49:56.193Z,24.51
2023-04-12T06:50:58.420Z,24.33
2023-04-12T06:52:00.452Z,24.84
2023-04-12T06:53:02.253Z,24.65
2023-04-12T06:54:04.088Z,24.54
2023-04-12T06:55:07.207Z,24.98
2023-04-12T06:56:09.145Z,24.60
2023-04-12T06:57:11.536Z,24.86
2023-04-12T06:58:13.292Z,24.68
2023-04-12T06:59:15.471Z,24.78
2023-04-12T07:00:17.421Z,24.48
2023-04-12T07:01:19.342Z,24.77
2023-04-12T07:02:21.282Z,24.99
2023-04-12T07:03:24.678Z,25.05
2023-04-12T07:04:26.654Z,24.62
2023-04-12T07:05:28.478Z,24.56
2023-04-12T07:06:30.324Z,25.10
2023-04-12T07:07:32.253Z,25.04
2023-04-12T07:08:35.748Z,24.72
2023-04-12T07:09:37.556Z,25.21
2023-04-12T07:10:39.397Z,24.72
2023-04-12T07:11:41.432Z,24.67
2023-04-12T07:12:43.224Z,25.07
2023-04-12T07:13:45.010Z,24.65
2023-04-12T07:14:46.803Z,24.83
2023-04-12T07:15:50.566Z,24.78
2023-04-12T07:16:52.460Z,25.35
2023-04-12T07:17:54.377Z,24.70
2023-04-12T07:18:56.645Z,24.74
2023-04-12T07:19:58.905Z,25.08
2023-04-12T07:21:00.791Z,24.62
2023-04-12T07:22:02.549Z,25.02
2023-04-12T07:23:04.325Z,24.65
2023-04-12T07:24:06.372Z,24.38
2023-04-12T07:25:10.978Z,25.08
2023-04-12T07:26:12.831Z,25.14
2023-04-12T07:27:14.710Z,25.21
2023-04-12T07:28:16.814Z,24.56
2023-04-12T07:29:19.130Z,24.88
2023-04-12T07:30:21.364Z,25.03
2023-04-12T07:31:24.018Z,24.68
2023-04-12T07:32:26.031Z,24.67
2023-04-12T07:33:28.131Z,25.29
2023-04-12T07:34:30.459Z,24.76
2023-04-12T07:35:33.062Z,24.76
2023-04-12T07:36:34.879Z,24.82
2023-04-12T07:37:37.596Z,25.45
2023-04-12T07:38:39.401Z,25.17
2023-04-12T07:39:41.424Z,25.26
2023-04-12T07:40:43.223Z,24.65
2023-04-12T07:41:46.922Z,25.41
2023-04-12T07:42:48.726Z,24.83
2023-04-12T07:43:50.645Z,24.50
2023-04-12T07:44:52.403Z,25.11
2023-04-12T07:45:57.414Z,25.10
2023-04-12T07:46:59.270Z,25.31
2023-04-12T07:48:01.212Z,24.66
2023-04-12T07:49:03.764Z,24.52
2023-04-12T07:50:06.968Z,24.97
2023-04-12T07:51:09.197Z,24.80
2023-04-12T07:52:11.080Z,25.23
2023-04-12T07:53:27.755Z,25.05
2023-04-12T07:54:29.742Z,24.59
2023-04-12T07:55:31.507Z,24.54
2023-04-12T07:56:36.563Z,25.08
2023-04-12T07:57:38.421Z,24.97
2023-04-12T07:58:40.542Z,24.75
2023-04-12T07:59:42.423Z,24.59
2023-04-12T08:00:48.028Z,24.52
2023-04-12T08:01:49.827Z,24.72
2023-04-12T08:02:51.797Z,24.52
2023-04-12T08:03:53.934Z,25.06
2023-04-12T08:04:55.918Z,24.61
2023-04-12T08:05:57.725Z,24.78
2023-04-12T08:06:59.591Z,25.17
2023-04-12T08:08:01.406Z,24.76
2023-04-12T08:09:03.231Z,24.75
2023-04-12T08:10:05.786Z,24.42
2023-04-12T08:11:07.711Z,24.84
2023-04-12T08:12:09.501Z,25.02
2023-04-12T08:13:11.319Z,24.79
2023-04-12T08:14:13.591Z,24.96
2023-04-12T08:15:15.377Z,24.60
2023-04-12T08:16:17.272Z,24.40
2023-04-12T08:17:19.182Z,24.85
2023-04-12T08:18:21.125Z,24.69
2023-04-12T08:19:23.127Z,24.45
2023-04-12T08:20:24.981Z,24.49
2023-04-12T08:21:27.800Z,24.72
2023-04-12T08:22:30.020Z,24.69
2023-04-12T08:23:31.872Z,24.89
2023-04-12T08:24:33.645Z,24.56
2023-04-12T08:25:35.580Z,24.71
2023-04-12T08:26:38.178Z,24.45
2023-04-12T08:27:42.665Z,24.60
2023-04-12T08:28:44.823Z,24.69
2023-04-12T08:29:46.718Z,24.28
2023-04-12T08:30:48.531Z,24.32
2023-04-12T08:31:50.428Z,24.51
2023-04-12T08:32:53.463Z,24.25
2023-04-12T08:33:56.724Z,24.32
2023-04-12T08:34:59.013Z,24.20
2023-04-12T08:36:01.971Z,24.07
2023-04-12T08:37:03.983Z,23.93
2023-04-12T08:38:07.857Z,24.52
2023-04-12T08:39:09.782Z,24.38
2023-04-12T08:40:12.425Z,24.02
2023-04-12T08:41:15.082Z,24.35
2023-04-12T08:42:17.366Z,24.50
2023-04-12T08:43:19.713Z,24.51
2023-04-12T08:44:38.416Z,24.32
2023-04-12T08:45:40.393Z,24.58
2023-04-12T08:46:42.845Z,24.19
2023-04-12T08:47:45.205Z,24.19
2023-04-12T08:48:49.555Z,24.57
2023-04-12T08:49:51.422Z,24.25
2023-04-12T08:50:54.827Z,24.28
2023-04-12T08:52:08.975Z,24.20
2023-04-12T08:53:11.940Z,24.33
2023-04-12T08:54:13.848Z,24.11
2023-04-12T08:55:15.717Z,24.71
2023-04-12T08:56:17.554Z,24.39
2023-04-12T08:57:20.365Z,24.07
2023-04-12T08:58:23.606Z,24.03
2023-04-12T08:59:29.194Z,24.88
2023-04-12T09:00:31.137Z,24.92
2023-04-12T09:01:33.707Z,24.28
2023-04-12T09:02:39.522Z,24.40
2023-04-12T09:03:45.651Z,24.60
2023-04-12T09:04:52.620Z,24.64
2023-04-12T09:05:54.494Z,24.73
2023-04-12T09:06:56.670Z,24.34
2023-04-12T09:07:58.901Z,24.90
2023-04-12T09:09:01.586Z,24.85
2023-04-12T09:10:04.813Z,24.27
2023-04-12T09:11:26.797Z,24.39
2023-04-12T09:12:28.836Z,24.85
2023-04-12T09:13:35.573Z,24.11
2023-04-12T09:14:38.880Z,24.48
2023-04-12T09:15:49.499Z,24.61
2023-04-12T09:16:51.954Z,24.11
2023-04-12T09:18:08.390Z,24.56
2023-04-12T09:19:10.336Z,24.34
2023-04-12T09:20:18.465Z,24.28
2023-04-12T09:21:20.275Z,24.96
2023-04-12T09:22:35.510Z,24.40
2023-04-12T09:23:37.450Z,24.13
2023-04-12T09:24:51.680Z,24.16
2023-04-12T09:25:53.821Z,24.72
2023-04-12T09:27:06.078Z,24.75
2023-04-12T09:28:27.332Z,24.72
2023-04-12T09:29:29.773Z,24.47
2023-04-12T09:30:42.319Z,24.72
2023-04-12T09:31:55.672Z,24.71
2023-04-12T09:33:11.600Z,24.07
2023-04-12T09:34:13.424Z,24.06
2023-04-12T09:35:15.513Z,24.63
2023-04-12T09:36:19.135Z,24.27
2023-04-12T09:37:21.037Z,24.60
2023-04-12T09:38:22.859Z,24.36
2023-04-12T09:39:35.101Z,24.74
2023-04-12T09:40:37.918Z,24.19
2023-04-12T09:41:39.713Z,24.29
2023-04-12T09:42:54.305Z,24.32
2023-04-12T09:43:56.490Z,24.47
2023-04-12T09:44:59.567Z,24.55
2023-04-12T09:46:14.420Z,24.66
2023-04-12T09:47:16.474Z,24.10
2023-04-12T09:48:21.108Z,24.30
2023-04-12T09:49:40.080Z,24.31
2023-04-12T09:50:42.178Z,24.22
2023-04-12T09:51:51.628Z,24.67
2023-04-12T09:52:54.882Z,24.32
2023-04-12T09:54:06.921Z,24.70
2023-04-12T09:55:10.298Z,24.53
2023-04-12T09:56:13.442Z,24.80
2023-04-12T09:57:19.184Z,24.39
2023-04-12T09:58:22.032Z,24.47
2023-04-12T09:59:28.287Z,24.32
2023-04-12T10:00:32.055Z,24.32
2023-04-12T10:01:40.390Z,24.29
2023-04-12T10:02:45.104Z,24.17
2023-04-12T10:03:48.928Z,24.41
2023-04-12T10:04:51.628Z,24.96
2023-04-12T10:05:55.248Z,24.71
2023-04-12T10:07:01.189Z,24.45
2023-04-12T10:08:04.833Z,24.50
2023-04-12T10:09:08.721Z,24.55
2023-04-12T10:10:12.691Z,24.31
2023-04-12T10:11:14.899Z,24.55
2023-04-12T10:12:17.328Z,24.86
2023-04-12T10:13:20.088Z,24.53
2023-04-12T10:14:22.710Z,24.80
2023-04-12T10:15:25.678Z,24.95
2023-04-12T10:16:37.955Z,24.51
2023-04-12T10:17:46.638Z,24.68
2023-04-12T10:18:50.431Z,25.17
2023-04-12T10:19:53.004Z,25.17
2023-04-12T10:20:55.624Z,24.96
2023-04-12T10:21:58.478Z,24.95
2023-04-12T10:23:00.687Z,24.57
2023-04-12T10:24:07.200Z,25.09
2023-04-12T10:25:13.504Z,25.26
2023-04-12T10:26:16.972Z,25.23
2023-04-12T10:27:26.460Z,25.31
2023-04-12T10:28:28.233Z,25.19
2023-04-12T10:29:38.638Z,24.79
2023-04-12T10:30:40.652Z,24.96
2023-04-12T10:31:42.805Z,24.78
2023-04-12T10:32:44.838Z,25.01
2023-04-12T10:33:47.690Z,25.18
2023-04-12T10:34:54.658Z,25.09
2023-04-12T10:36:08.748Z,24.98
2023-04-12T10:37:10.957Z,25.32
2023-04-12T10:38:12.777Z,24.97
2023-04-12T10:39:15.389Z,24.95
2023-04-12T10:40:19.163Z,25.37
2023-04-12T10:41:22.227Z,24.89
2023-04-12T10:42:28.755Z,25.11
2023-04-12T10:43:33.401Z,25.63
2023-04-12T10:44:36.034Z,25.10
2023-04-12T10:45:38.493Z,25.44
2023-04-12T10:46:40.671Z,25.74
2023-04-12T10:47:48.580Z,25.27
2023-04-12T10:48:53.794Z,25.41
2023-04-12T10:50:32.216Z,24.77
2023-04-12T10:51:36.079Z,25.03
2023-04-12T10:52:44.483Z,25.08
2023-04-12T10:53:46.897Z,25.39
2023-04-12T10:54:57.302Z,25.54
2023-04-12T10:55:59.126Z,24.94
2023-04-12T10:57:04.665Z,25.21
2023-04-12T10:58:47.707Z,25.35
2023-04-12T10:59:56.767Z,25.27
2023-04-12T11:00:58.970Z,25.54
2023-04-12T11:02:13.745Z,25.50
2023-04-12T11:03:20.017Z,25.29
2023-04-12T11:04:22.382Z,25.36
2023-04-12T11:06:12.628Z,24.98
2023-04-12T11:07:44.906Z,25.10
2023-04-12T11:09:25.654Z,25.01
2023-04-12T11:10:28.605Z,25.46
2023-04-12T11:11:34.888Z,25.58
2023-04-12T11:12:38.727Z,25.59
2023-04-12T11:13:41.220Z,25.21
2023-04-12T11:14:47.010Z,25.63
2023-04-12T11:15:55.005Z,25.15
2023-04-12T11:17:06.140Z,25.24
2023-04-12T11:18:08.237Z,25.53
2023-04-12T11:19:10.786Z,25.21
2023-04-12T11:20:13.634Z,25.54
2023-04-12T11:21:15.831Z,25.26
2023-04-12T11:22:19.957Z,25.57
2023-04-12T11:23:22.098Z,25.29
2023-04-12T11:24:23.916Z,25.62
2023-04-12T11:25:26.178Z,25.54
2023-04-12T11:26:31.414Z,25.47
2023-04-12T11:27:34.463Z,25.39
2023-04-12T11:28:36.237Z,25.50
2023-04-12T11:29:38.668Z,25.19
2023-04-12T11:30:49.899Z,25.16
2023-04-12T11:31:51.807Z,25.48
2023-04-12T11:32:53.677Z,25.23
2023-04-12T11:33:56.280Z,25.53
2023-04-12T11:34:58.917Z,25.19
2023-04-12T11:36:06.484Z,25.36
2023-04-12T11:37:09.422Z,25.03
2023-04-12T11:38:11.285Z,25.51
2023-04-12T11:39:13.894Z,25.58
2023-04-12T11:40:16.075Z,25.46
2023-04-12T11:41:18.692Z,25.61
2023-04-12T11:42:23.861Z,25.13
2023-04-12T11:43:25.784Z,25.54
2023-04-12T11:44:27.847Z,25.40
2023-04-12T11:45:31.988Z,25.32
2023-04-12T11:46:34.247Z,25.17
2023-04-12T11:47:36.749Z,25.25
2023-04-12T11:48:38.937Z,25.42
2023-04-12T11:49:44.802Z,25.12
2023-04-12T11:50:51.846Z,25.46
2023-04-12T11:52:04.618Z,25.60
2023-04-12T11:53:13.509Z,25.39
2023-04-12T11:54:15.679Z,24.83
2023-04-12T11:55:17.737Z,25.52
2023-04-12T11:56:19.728Z,25.40
2023-04-12T11:57:21.638Z,25.71
2023-04-12T11:58:27.335Z,25.63
2023-04-12T11:59:33.939Z,25.31
2023-04-12T12:00:36.335Z,25.81
2023-04-12T12:01:38.383Z,25.45
2023-04-12T12:02:46.541Z,25.54
2023-04-12T12:03:55.275Z,25.35
2023-04-12T12:04:57.732Z,25.33
2023-04-12T12:05:59.919Z,25.16
2023-04-12T12:07:02.625Z,25.51
2023-04-12T12:08:07.595Z,24.98
2023-04-12T12:09:09.818Z,25.67
2023-04-12T12:10:13.359Z,25.18
2023-04-12T12:11:21.614Z,25.53
2023-04-12T12:12:24.780Z,25.13
2023-04-12T12:13:26.621Z,25.52
2023-04-12T12:14:29.221Z,25.31
2023-04-12T12:15:31.859Z,25.41
2023-04-12T12:16:35.950Z,25.47
2023-04-12T12:17:38.863Z,25.76
2023-04-12T12:18:45.114Z,25.13
2023-04-12T12:19:46.990Z,25.26
2023-04-12T12:20:50.559Z,25.19
2023-04-12T12:21:52.408Z,25.64
2023-04-12T12:22:54.583Z,25.29
2023-04-12T12:23:57.393Z,25.45
2023-04-12T12:25:01.125Z,25.76
2023-04-12T12:26:17.559Z,25.47
2023-04-12T12:27:23.314Z,24.99
2023-04-12T12:28:25.360Z,25.47
2023-04-12T12:29:34.188Z,25.15
2023-04-12T12:30:40.248Z,25.34
2023-04-12T12:31:46.841Z,25.38
2023-04-12T12:32:50.339Z,25.39
2023-04-12T12:33:57.340Z,24.87
2023-04-12T12:34:59.576Z,25.27
2023-04-12T12:36:01.590Z,25.39
2023-04-12T12:37:03.873Z,25.37
2023-04-12T12:38:08.635Z,25.32
2023-04-12T12:39:12.853Z,25.23
2023-04-12T12:40:15.473Z,25.11
2023-04-12T12:41:27.496Z,25.52
2023-04-12T12:42:29.310Z,25.45
2023-04-12T12:43:32.880Z,25.49
2023-04-12T12:44:37.567Z,25.54
2023-04-12T12:45:41.038Z,25.48
2023-04-12T12:47:49.346Z,24.86
2023-04-12T12:48:51.363Z,25.25
2023-04-12T12:49:53.548Z,25.12
2023-04-12T12:50:55.598Z,24.85
2023-04-12T12:51:57.452Z,24.94
2023-04-12T12:53:03.423Z,25.16
2023-04-12T12:54:06.366Z,24.85
2023-04-12T12:55:08.604Z,24.94
2023-04-12T12:56:12.175Z,25.29
2023-04-12T12:57:14.136Z,25.45
2023-04-12T12:58:15.925Z,25.07
2023-04-12T12:59:17.938Z,25.08
2023-04-12T13:00:22.076Z,24.84
2023-04-12T13:01:23.868Z,25.22
2023-04-12T13:02:25.919Z,24.95
2023-04-12T13:03:28.095Z,25.40
2023-04-12T13:04:30.193Z,25.45
2023-04-12T13:05:32.170Z,25.35
2023-04-12T13:06:33.987Z,25.18
2023-04-12T13:07:35.987Z,25.35
2023-04-12T13:08:37.840Z,25.17
2023-04-12T13:09:39.648Z,25.13
2023-04-12T13:10:41.502Z,25.00
2023-04-12T13:11:43.315Z,24.96
2023-04-12T13:12:45.221Z,25.17
2023-04-12T13:13:47.281Z,25.10
2023-04-12T13:14:49.140Z,24.92
2023-04-12T13:15:52.923Z,24.68
2023-04-12T13:16:55.053Z,24.70
2023-04-12T13:17:56.938Z,25.09
2023-04-12T13:18:59.074Z,25.02
2023-04-12T13:20:01.424Z,25.26
2023-04-12T13:21:03.433Z,25.21
2023-04-12T13:22:07.379Z,25.10
2023-04-12T13:23:09.654Z,25.00
2023-04-12T13:24:11.477Z,24.97
2023-04-12T13:25:13.296Z,25.15
2023-04-12T13:26:15.242Z,24.84
2023-04-12T13:27:17.781Z,24.82
2023-04-12T13:28:20.762Z,24.97
2023-04-12T13:29:22.822Z,24.85
2023-04-12T13:30:24.604Z,25.26
2023-04-12T13:31:26.427Z,25.28
2023-04-12T13:32:28.414Z,25.18
2023-04-12T13:33:30.678Z,25.36
2023-04-12T13:34:32.875Z,24.75
2023-04-12T13:35:34.760Z,25.36
2023-04-12T13:36:36.660Z,25.36
2023-04-12T13:37:38.581Z,25.07
2023-04-12T13:38:40.491Z,25.43
2023-04-12T13:39:42.861Z,25.19
2023-04-12T13:40:44.666Z,25.15
2023-04-12T13:41:46.506Z,25.17
2023-04-12T13:42:48.310Z,25.38
2023-04-12T13:43:50.320Z,25.61
2023-04-12T13:44:52.126Z,25.42
2023-04-12T13:45:54.020Z,24.97
2023-04-12T13:46:56.943Z,25.29
2023-04-12T13:47:58.824Z,25.18
2023-04-12T13:49:00.866Z,24.93
2023-04-12T13:50:02.874Z,24.83
2023-04-12T13:51:04.861Z,25.15
2023-04-12T13:52:07.129Z,25.04
2023-04-12T13:53:08.989Z,25.03
2023-04-12T13:54:11.031Z,25.40
2023-04-12T13:55:12.878Z,25.12
2023-04-12T13:56:16.266Z,25.05